Fivemiletown, United Kingdom
Current Conditions -  °F | °C
As of 3:50 PM on Thursday 27 Nov 2014 (Local Time) from EGAE Reporting Station
Broken Clouds Broken Clouds  
Wind Chill: 45°   Ceiling: 3900
Heat Index: 48°   Visibility: 6mi
Dew Point: 45°   Wind: 7mph
Humidity: 87%   Direction: 110°ESE
Pressure: 29.5"   Gusts: NA
Location:  54.38°N, 7.3°W
Report Text: EGAE 271550Z 11006KT 9999 FEW015 BKN039 09/07 Q0999
Loading
Personal Weather Stations






























Interactive Weather Map New forecast layout! Learn more

10-Day Weather Forecast

Advertisements
Track Severe Weather on mobile